Briercrest, Canada
Current Conditions -  °F | °C
As of 3:00 PM on Saturday 20 Dec 2014 (Local Time) from CYQR Reporting Station
Haze Haze  
Wind Chill: 20°   Ceiling: 500
Heat Index: 28°   Visibility: 5mi
Dew Point: 28°   Wind: 8mph
Humidity: 100%   Direction: 130°SE
Pressure: 29.69"   Gusts: NA
Location:  50.17°N, 105.27°W
Report Text: CYQR 202100Z 13007KT 5SM BR BKN005 OVC013 M02/M02 A2969 RMK SF6SC2 SLP089
Loading
Personal Weather Stations






























Interactive Weather Map New forecast layout! Learn more

10-Day Weather Forecast

Advertisements
Track Severe Weather on mobile